Time;durP1;ratioP1;P1;durP2;ratioP2;P2;SDS_P1;SDS_P2;PMS_P1;PMS_P2;Temp;Humidity;BMP_temperature;BMP_pressure;BME280_temperature;BME280_humidity;BME280_pressure;Samples;Min_cycle;Max_cycle;Signal;HPM_P1;HPM_P2
2021/06/02 00:01:45;;;;;;;6.90;3.13;;;18.50;97.50;;;;;;5080574;28;20190;-74
2021/06/02 00:04:13;;;;;;;5.30;3.00;;;18.50;98.10;;;;;;5085083;28;20193;-74
2021/06/02 00:06:39;;;;;;;6.10;3.23;;;18.50;98.60;;;;;;5089820;28;20250;-76
2021/06/02 00:09:05;;;;;;;7.27;3.30;;;18.50;98.70;;;;;;5070350;28;20344;-72
2021/06/02 00:11:35;;;;;;;6.50;3.47;;;18.40;99.50;;;;;;5085653;28;20262;-72
2021/06/02 00:14:01;;;;;;;6.07;3.50;;;18.40;99.90;;;;;;5085973;28;20653;-73
2021/06/02 00:16:27;;;;;;;6.00;3.57;;;18.30;99.90;;;;;;5088856;28;20182;-72
2021/06/02 00:18:53;;;;;;;8.50;3.30;;;18.20;99.90;;;;;;5087276;28;20673;-74
2021/06/02 00:21:18;;;;;;;8.90;3.43;;;18.20;99.90;;;;;;5088070;28;20191;-74
2021/06/02 00:23:44;;;;;;;6.67;3.40;;;18.20;99.90;;;;;;5079238;28;20239;-73
2021/06/02 00:26:13;;;;;;;9.80;3.20;;;18.20;99.90;;;;;;5078037;28;20218;-74
2021/06/02 00:28:39;;;;;;;9.00;3.20;;;18.10;99.90;;;;;;5076824;28;20168;-72
2021/06/02 00:31:06;;;;;;;5.63;3.30;;;18.10;99.90;;;;;;5050182;28;20198;-73
2021/06/02 00:33:32;;;;;;;6.93;3.67;;;18.00;99.90;;;;;;5084194;28;20206;-76
2021/06/02 00:35:59;;;;;;;7.13;3.40;;;18.00;99.90;;;;;;5088847;28;20189;-76
2021/06/02 00:38:26;;;;;;;6.43;3.40;;;17.90;99.90;;;;;;5066974;28;20693;-72
2021/06/02 00:40:52;;;;;;;5.40;2.93;;;17.90;99.90;;;;;;5070475;28;20185;-72
2021/06/02 00:43:19;;;;;;;5.37;3.00;;;17.80;99.90;;;;;;5075227;28;20214;-72
2021/06/02 00:45:48;;;;;;;7.50;3.17;;;17.80;99.90;;;;;;5084536;28;20211;-71
2021/06/02 00:48:17;;;;;;;7.00;3.37;;;17.80;99.90;;;;;;5079554;28;20259;-72
2021/06/02 00:50:48;;;;;;;5.77;3.30;;;17.80;99.90;;;;;;5068395;28;20186;-72
2021/06/02 00:53:15;;;;;;;6.57;3.53;;;17.90;99.90;;;;;;5085735;28;20232;-72
2021/06/02 00:55:42;;;;;;;8.00;3.30;;;17.80;99.90;;;;;;5069393;28;20185;-74
2021/06/02 00:58:09;;;;;;;6.33;3.13;;;17.70;99.90;;;;;;5087903;28;20240;-74
2021/06/02 01:00:36;;;;;;;5.73;3.20;;;17.70;99.90;;;;;;5083521;28;20650;-73
2021/06/02 01:03:05;;;;;;;8.87;3.33;;;17.60;99.90;;;;;;5081843;28;20667;-73
2021/06/02 01:05:32;;;;;;;6.40;3.20;;;17.50;99.90;;;;;;5061762;28;20203;-72
2021/06/02 01:08:03;;;;;;;5.43;2.87;;;17.40;99.90;;;;;;5071314;28;20186;-73
2021/06/02 01:10:29;;;;;;;7.10;3.20;;;17.50;99.90;;;;;;5089180;28;20637;-73
2021/06/02 01:12:59;;;;;;;7.53;3.40;;;17.50;99.90;;;;;;5084935;28;20187;-74
2021/06/02 01:15:27;;;;;;;5.60;3.23;;;17.50;99.90;;;;;;5086139;28;20186;-74
2021/06/02 01:17:53;;;;;;;7.57;3.60;;;17.40;99.90;;;;;;5087705;28;20230;-72
2021/06/02 01:20:19;;;;;;;7.13;3.13;;;17.20;99.90;;;;;;5091509;28;20639;-74
2021/06/02 01:22:46;;;;;;;6.23;3.30;;;17.20;99.90;;;;;;5085071;28;20216;-77
2021/06/02 01:25:18;;;;;;;5.40;3.13;;;17.30;99.90;;;;;;5084966;28;20684;-72
2021/06/02 01:27:47;;;;;;;5.93;2.90;;;17.30;99.90;;;;;;5087641;28;20172;-72
2021/06/02 01:30:26;;;;;;;5.63;3.20;;;17.30;99.90;;;;;;5090802;28;20657;-73
2021/06/02 01:32:53;;;;;;;6.87;3.27;;;17.20;99.90;;;;;;5086995;28;20179;-75
2021/06/02 01:35:31;;;;;;;8.43;3.37;;;17.20;99.90;;;;;;5077218;28;20244;-77
2021/06/02 01:38:44;;;;;;;6.80;3.50;;;17.30;99.90;;;;;;5084500;28;20221;-73
2021/06/02 01:41:28;;;;;;;5.70;3.23;;;17.30;99.90;;;;;;5065985;28;20240;-76
2021/06/02 01:44:11;;;;;;;7.50;3.23;;;17.30;99.90;;;;;;5073192;28;20188;-73
2021/06/02 01:46:52;;;;;;;6.03;3.50;;;17.20;99.90;;;;;;5072093;28;20593;-72
2021/06/02 01:50:02;;;;;;;5.67;3.17;;;17.10;99.90;;;;;;5071883;28;20210;-75
2021/06/02 01:53:02;;;;;;;5.63;3.43;;;17.00;99.90;;;;;;4950698;28;20275;-74
2021/06/02 01:55:55;;;;;;;6.77;3.13;;;17.00;99.90;;;;;;4948028;28;20195;-75
2021/06/02 01:58:40;;;;;;;7.80;3.50;;;17.00;99.90;;;;;;5058940;28;20195;-74
2021/06/02 02:01:39;;;;;;;10.47;3.67;;;16.90;99.90;;;;;;5070474;28;20198;-74
2021/06/02 02:04:31;;;;;;;8.57;3.63;;;16.80;99.90;;;;;;5052732;28;20270;-75
2021/06/02 02:07:18;;;;;;;7.63;3.70;;;16.80;99.90;;;;;;5036851;28;20234;-72
2021/06/02 02:10:04;;;;;;;8.37;3.80;;;16.70;99.90;;;;;;5070599;28;20215;-73
2021/06/02 02:12:36;;;;;;;8.10;4.37;;;16.70;99.90;;;;;;5069951;28;20187;-75
2021/06/02 02:15:04;;;;;;;7.23;4.33;;;16.60;99.90;;;;;;5070461;28;20699;-71
2021/06/02 02:17:33;;;;;;;6.67;3.90;;;16.50;99.90;;;;;;5064827;28;20179;-71
2021/06/02 02:20:29;;;;;;;6.00;3.60;;;16.40;99.90;;;;;;5069450;28;20203;-75
2021/06/02 02:23:14;;;;;;;8.30;4.37;;;16.40;99.90;;;;;;5069172;28;20187;-74
2021/06/02 02:26:13;;;;;;;8.67;4.60;;;16.20;99.90;;;;;;5084709;22;20796;-75
2021/06/02 02:29:18;;;;;;;8.73;4.33;;;16.20;99.90;;;;;;5088824;28;20190;-75
2021/06/02 02:32:03;;;;;;;9.60;4.93;;;16.20;99.90;;;;;;5071757;28;20193;-76
2021/06/02 02:34:56;;;;;;;7.60;3.93;;;16.10;99.90;;;;;;5072562;28;20197;-74
2021/06/02 02:37:50;;;;;;;7.00;4.00;;;15.90;99.90;;;;;;5089015;28;20183;-75
2021/06/02 02:40:27;;;;;;;8.77;4.70;;;15.80;99.90;;;;;;5090373;28;20273;-72
2021/06/02 02:43:12;;;;;;;9.43;4.67;;;15.70;99.90;;;;;;5087928;28;20235;-73
2021/06/02 02:45:56;;;;;;;8.90;4.70;;;15.70;99.90;;;;;;5086642;28;20318;-73
2021/06/02 02:48:37;;;;;;;7.87;4.30;;;15.60;99.90;;;;;;5087461;28;20192;-73
2021/06/02 02:51:28;;;;;;;7.27;4.63;;;15.50;99.90;;;;;;5084361;28;20277;-77
2021/06/02 02:54:08;;;;;;;10.87;4.73;;;15.40;99.90;;;;;;5088291;28;20558;-71
2021/06/02 02:57:06;;;;;;;9.10;4.40;;;15.40;99.90;;;;;;5060825;23;20250;-76
2021/06/02 02:59:50;;;;;;;8.93;4.27;;;15.40;99.90;;;;;;5053002;28;20217;-75
2021/06/02 03:02:28;;;;;;;8.47;4.53;;;15.40;99.90;;;;;;5070750;28;20263;-75
2021/06/02 03:04:57;;;;;;;8.83;4.40;;;15.40;99.90;;;;;;5036825;28;20217;-76
2021/06/02 03:07:23;;;;;;;8.77;4.20;;;15.40;99.90;;;;;;5065657;28;20248;-76
2021/06/02 03:10:06;;;;;;;8.60;4.40;;;15.40;99.90;;;;;;5070894;28;20189;-74
2021/06/02 03:12:57;;;;;;;7.53;4.43;;;15.30;99.90;;;;;;5067552;28;20256;-76
2021/06/02 03:15:39;;;;;;;7.50;4.20;;;15.40;99.90;;;;;;5082291;22;20717;-72
2021/06/02 03:18:05;;;;;;;7.73;4.67;;;15.30;99.90;;;;;;5067747;28;20221;-72
2021/06/02 03:20:46;;;;;;;7.40;3.83;;;15.30;99.90;;;;;;5069402;28;20206;-72
2021/06/02 03:23:43;;;;;;;8.67;4.50;;;15.20;99.90;;;;;;5069943;28;20195;-72
2021/06/02 03:26:21;;;;;;;11.33;4.77;;;15.20;99.90;;;;;;5069518;28;20219;-73
2021/06/02 03:29:02;;;;;;;8.60;4.60;;;15.20;99.90;;;;;;5053203;28;20252;-74
2021/06/02 03:31:46;;;;;;;6.93;4.67;;;15.10;99.90;;;;;;5068266;28;20909;-74
2021/06/02 03:34:56;;;;;;;6.93;4.27;;;15.10;99.90;;;;;;5051350;28;20194;-74
2021/06/02 03:37:38;;;;;;;8.67;4.80;;;15.10;99.90;;;;;;5065688;28;20621;-75
2021/06/02 03:40:21;;;;;;;7.40;4.70;;;15.00;99.90;;;;;;5070656;28;20198;-75
2021/06/02 03:42:54;;;;;;;8.50;4.13;;;14.90;99.90;;;;;;5068746;28;20188;-74
2021/06/02 03:45:31;;;;;;;8.23;4.90;;;14.70;99.90;;;;;;5071931;28;20672;-74
2021/06/02 03:48:18;;;;;;;9.40;5.00;;;14.70;99.90;;;;;;5063158;28;20696;-74
2021/06/02 03:51:02;;;;;;;7.83;4.70;;;14.70;99.90;;;;;;5066110;28;20182;-74
2021/06/02 03:53:46;;;;;;;11.87;4.67;;;14.70;99.90;;;;;;5068117;28;20174;-74
2021/06/02 03:56:24;;;;;;;10.47;5.20;;;14.80;99.90;;;;;;5069979;28;20228;-72
2021/06/02 03:59:09;;;;;;;10.70;5.20;;;14.80;99.90;;;;;;5049477;28;20601;-72
2021/06/02 04:02:01;;;;;;;11.47;5.00;;;14.70;99.90;;;;;;5069115;28;22028;-75
2021/06/02 04:04:41;;;;;;;7.23;4.80;;;14.80;99.90;;;;;;5069463;28;20217;-75
2021/06/02 04:07:10;;;;;;;9.20;4.23;;;14.90;99.90;;;;;;5069599;28;20233;-75
2021/06/02 04:10:05;;;;;;;8.37;4.40;;;15.00;99.90;;;;;;5066531;28;20194;-76
2021/06/02 04:12:39;;;;;;;6.57;4.23;;;15.10;99.90;;;;;;5068100;28;20191;-74
2021/06/02 04:15:11;;;;;;;8.37;4.17;;;15.20;99.90;;;;;;5067994;28;20533;-75
2021/06/02 04:17:40;;;;;;;7.60;4.10;;;15.30;99.90;;;;;;5068372;28;20181;-74
2021/06/02 04:20:07;;;;;;;10.50;4.37;;;15.40;99.90;;;;;;5068003;28;20173;-74
2021/06/02 04:22:36;;;;;;;7.07;4.10;;;15.60;99.90;;;;;;5063830;28;20264;-74
2021/06/02 04:25:13;;;;;;;8.47;4.33;;;15.80;99.90;;;;;;5064060;28;20206;-73
2021/06/02 04:27:40;;;;;;;7.63;4.10;;;16.30;99.90;;;;;;5047591;28;20763;-74
2021/06/02 04:30:07;;;;;;;6.77;3.97;;;17.40;99.90;;;;;;5070724;28;20179;-73
2021/06/02 04:33:00;;;;;;;7.77;3.50;;;18.50;99.90;;;;;;5065151;28;20786;-74
2021/06/02 04:35:26;;;;;;;6.87;3.37;;;19.30;99.90;;;;;;5063870;28;20224;-72
2021/06/02 04:37:54;;;;;;;7.90;3.47;;;19.80;99.90;;;;;;5066654;28;20216;-74
2021/06/02 04:40:20;;;;;;;6.57;3.70;;;20.20;99.90;;;;;;5067838;28;20200;-72
2021/06/02 04:42:46;;;;;;;9.23;3.50;;;21.30;99.90;;;;;;5067185;28;20189;-72
2021/06/02 04:45:31;;;;;;;7.20;3.60;;;22.20;99.90;;;;;;5063492;28;20209;-73
2021/06/02 04:47:58;;;;;;;6.90;3.77;;;23.30;99.90;;;;;;5062084;28;20270;-72
2021/06/02 04:50:32;;;;;;;9.20;3.60;;;24.30;99.10;;;;;;5062166;28;20269;-72
2021/06/02 04:53:31;;;;;;;10.43;4.00;;;25.10;96.60;;;;;;5072963;28;20199;-72
2021/06/02 04:56:30;;;;;;;7.83;3.70;;;25.90;93.50;;;;;;5070533;28;20187;-71
2021/06/02 04:59:22;;;;;;;7.33;3.07;;;26.70;90.80;;;;;;5064828;28;20262;-72
2021/06/02 05:02:24;;;;;;;5.45;3.08;;;27.20;87.70;;;;;;5070792;28;20310;-72
2021/06/02 05:05:24;;;;;;;5.20;2.80;;;27.80;84.50;;;;;;5071903;28;20721;-73
2021/06/02 05:08:11;;;;;;;6.88;2.97;;;28.40;78.10;;;;;;5085087;28;20176;-73
2021/06/02 05:10:43;;;;;;;4.45;2.65;;;29.30;74.20;;;;;;5070307;28;20221;-72
2021/06/02 05:13:27;;;;;;;6.00;3.17;;;29.70;67.80;;;;;;5065657;28;20705;-73
2021/06/02 05:16:11;;;;;;;6.25;3.00;;;29.90;67.00;;;;;;5058471;28;20231;-72
2021/06/02 05:19:20;;;;;;;7.85;3.42;;;30.40;66.00;;;;;;5064877;28;20211;-75
2021/06/02 05:22:06;;;;;;;7.15;3.15;;;30.50;62.80;;;;;;5052927;28;20541;-75
2021/06/02 05:24:57;;;;;;;5.07;2.67;;;30.40;61.30;;;;;;5074363;28;20613;-75
2021/06/02 05:27:41;;;;;;;7.30;3.22;;;29.60;61.80;;;;;;5054968;28;20227;-74
2021/06/02 05:30:28;;;;;;;5.13;2.95;;;29.20;62.40;;;;;;5032495;28;20556;-75
2021/06/02 05:33:37;;;;;;;6.43;2.80;;;29.20;62.20;;;;;;5068827;28;20200;-76
2021/06/02 05:36:40;;;;;;;7.35;3.17;;;29.00;62.60;;;;;;5072243;28;20696;-72
2021/06/02 05:39:12;;;;;;;8.10;3.05;;;29.30;61.60;;;;;;5069986;28;21610;-72
2021/06/02 05:42:09;;;;;;;6.47;3.15;;;29.40;60.60;;;;;;5051975;28;20230;-72
2021/06/02 05:44:40;;;;;;;7.13;2.92;;;29.30;61.30;;;;;;5063881;28;20199;-73
2021/06/02 05:47:18;;;;;;;7.32;2.83;;;29.40;61.30;;;;;;5045928;28;20208;-75
2021/06/02 05:50:27;;;;;;;6.38;2.97;;;30.30;60.20;;;;;;5071883;28;20225;-74
2021/06/02 05:53:26;;;;;;;6.47;2.95;;;30.70;59.30;;;;;;5066346;28;20243;-75
2021/06/02 05:56:15;;;;;;;8.13;2.95;;;32.30;58.40;;;;;;5071727;28;20191;-71
2021/06/02 05:59:31;;;;;;;6.72;2.50;;;33.30;57.70;;;;;;5054660;28;20235;-74
2021/06/02 06:02:20;;;;;;;3.85;2.42;;;34.00;56.10;;;;;;5053481;28;20184;-73
2021/06/02 06:05:04;;;;;;;6.65;2.80;;;34.40;55.80;;;;;;5060055;28;20219;-72
2021/06/02 06:07:52;;;;;;;8.57;2.70;;;35.00;54.10;;;;;;5069892;28;20176;-72
2021/06/02 06:11:01;;;;;;;6.10;2.95;;;35.20;53.50;;;;;;5067972;28;20183;-73
2021/06/02 06:16:18;;;;;;;7.70;2.70;;;35.80;51.20;;;;;;5086938;28;20213;-75
2021/06/02 06:19:11;;;;;;;5.95;2.63;;;35.90;51.50;;;;;;5066403;28;20195;-74
2021/06/02 06:21:56;;;;;;;7.10;2.17;;;36.00;49.70;;;;;;5061617;28;20221;-76
2021/06/02 06:24:38;;;;;;;6.35;2.38;;;35.80;50.60;;;;;;5064931;28;20220;-75
2021/06/02 06:27:06;;;;;;;4.65;2.70;;;35.80;50.50;;;;;;5046344;28;20179;-76
2021/06/02 06:29:58;;;;;;;3.92;2.20;;;36.00;50.30;;;;;;5070241;28;20270;-75
2021/06/02 06:32:26;;;;;;;7.82;2.55;;;36.10;48.90;;;;;;5061463;28;20654;-75
2021/06/02 06:34:53;;;;;;;5.15;2.50;;;36.30;48.70;;;;;;5064409;28;20248;-76
2021/06/02 06:37:19;;;;;;;5.88;2.63;;;35.90;48.10;;;;;;5078337;28;20305;-72
2021/06/02 06:39:56;;;;;;;9.25;2.50;;;35.10;48.50;;;;;;5068713;28;20197;-72
2021/06/02 06:42:28;;;;;;;6.22;2.75;;;34.90;48.10;;;;;;5067895;28;20712;-72
2021/06/02 06:44:58;;;;;;;6.20;2.30;;;34.50;49.70;;;;;;5068818;28;20230;-72
2021/06/02 06:47:25;;;;;;;7.50;2.60;;;34.70;48.10;;;;;;5070220;28;20191;-73
2021/06/02 06:49:55;;;;;;;5.18;2.17;;;34.70;47.20;;;;;;5067022;28;20198;-72
2021/06/02 06:52:26;;;;;;;6.70;2.28;;;34.60;47.60;;;;;;5070411;28;20192;-72
2021/06/02 06:54:57;;;;;;;7.82;2.20;;;34.80;46.90;;;;;;5071606;28;20199;-73
2021/06/02 06:57:23;;;;;;;7.95;2.47;;;34.90;47.80;;;;;;5067633;28;20554;-72
2021/06/02 06:59:50;;;;;;;5.47;2.50;;;34.70;46.20;;;;;;5064334;28;20176;-72
2021/06/02 07:02:16;;;;;;;6.05;2.30;;;34.50;46.90;;;;;;5064505;28;20191;-71
2021/06/02 07:04:43;;;;;;;6.72;2.53;;;34.90;46.80;;;;;;5069700;28;20191;-75
2021/06/02 07:07:10;;;;;;;6.32;2.20;;;34.70;45.80;;;;;;5050213;28;20179;-75
2021/06/02 07:09:36;;;;;;;8.00;2.55;;;34.40;46.20;;;;;;5064364;28;20218;-74
2021/06/02 07:12:03;;;;;;;3.85;2.20;;;34.20;47.50;;;;;;5046282;28;20183;-72
2021/06/02 07:14:30;;;;;;;4.53;2.10;;;33.80;47.20;;;;;;5067072;28;20319;-73
2021/06/02 07:17:03;;;;;;;5.15;2.03;;;33.80;46.10;;;;;;5062386;28;20181;-72
2021/06/02 07:19:31;;;;;;;6.55;2.40;;;34.00;46.40;;;;;;5066439;28;20638;-72
2021/06/02 07:21:58;;;;;;;4.57;2.13;;;34.90;46.00;;;;;;5070683;28;20178;-73
2021/06/02 07:24:28;;;;;;;5.80;2.17;;;35.10;44.90;;;;;;5068187;28;20267;-75
2021/06/02 07:26:54;;;;;;;4.75;1.73;;;35.20;44.20;;;;;;5066132;28;20197;-72
2021/06/02 07:29:19;;;;;;;4.95;2.10;;;35.20;45.30;;;;;;5066040;28;20278;-77
2021/06/02 07:31:45;;;;;;;6.15;1.80;;;35.70;43.60;;;;;;5069181;28;20180;-76
2021/06/02 07:34:11;;;;;;;4.18;2.15;;;36.50;42.80;;;;;;5068148;28;20664;-75
2021/06/02 07:36:37;;;;;;;6.07;2.05;;;35.60;42.70;;;;;;5069816;28;20187;-72
2021/06/02 07:39:04;;;;;;;4.10;2.10;;;35.70;43.30;;;;;;5065127;28;20188;-72
2021/06/02 07:41:30;;;;;;;3.78;2.08;;;36.30;43.40;;;;;;5068744;28;20885;-73
2021/06/02 07:43:56;;;;;;;6.47;2.00;;;36.60;43.80;;;;;;5067531;28;20193;-75
2021/06/02 07:46:25;;;;;;;6.15;2.35;;;36.60;44.80;;;;;;5068453;28;20589;-75
2021/06/02 07:48:51;;;;;;;3.28;2.20;;;36.40;43.60;;;;;;5068177;28;20286;-75
2021/06/02 07:51:18;;;;;;;4.80;2.13;;;35.30;43.70;;;;;;5067978;28;20262;-75
2021/06/02 07:53:43;;;;;;;6.32;2.30;;;35.40;46.00;;;;;;5068012;28;20192;-76
2021/06/02 07:56:09;;;;;;;6.45;2.42;;;36.20;43.80;;;;;;5066021;28;20187;-76
2021/06/02 07:58:35;;;;;;;5.47;2.00;;;36.90;42.90;;;;;;5069158;28;20190;-75
2021/06/02 08:01:01;;;;;;;3.65;2.00;;;37.60;43.30;;;;;;5070199;28;20183;-75
2021/06/02 08:03:26;;;;;;;5.85;2.15;;;38.00;42.50;;;;;;5066147;28;20280;-73
2021/06/02 08:05:52;;;;;;;5.57;2.20;;;39.50;41.90;;;;;;5071298;28;20302;-74
2021/06/02 08:08:18;;;;;;;7.30;2.38;;;40.60;40.10;;;;;;5052049;28;20191;-76
2021/06/02 08:10:44;;;;;;;4.65;2.00;;;40.80;38.80;;;;;;5068542;28;20207;-72
2021/06/02 08:13:09;;;;;;;5.05;1.98;;;40.60;39.30;;;;;;5065618;28;20545;-72
2021/06/02 08:15:35;;;;;;;7.15;2.30;;;40.80;40.00;;;;;;5065894;28;20223;-73
2021/06/02 08:18:02;;;;;;;6.00;2.00;;;41.00;39.00;;;;;;5067871;28;20188;-75
2021/06/02 08:20:28;;;;;;;3.83;1.98;;;41.80;39.00;;;;;;5067033;28;20203;-76
2021/06/02 08:22:54;;;;;;;4.93;1.83;;;40.10;36.90;;;;;;5066174;28;20187;-75
2021/06/02 08:25:20;;;;;;;4.88;2.10;;;39.60;38.40;;;;;;5064019;28;20290;-75
2021/06/02 08:27:46;;;;;;;5.63;1.75;;;40.10;37.70;;;;;;5051196;28;20184;-75
2021/06/02 08:30:12;;;;;;;8.00;2.20;;;39.70;37.50;;;;;;5072759;28;20172;-75
2021/06/02 08:32:39;;;;;;;7.38;1.88;;;40.00;37.00;;;;;;5070860;28;20179;-72
2021/06/02 08:35:07;;;;;;;7.10;2.13;;;39.60;37.00;;;;;;5069020;28;20176;-72
2021/06/02 08:37:33;;;;;;;5.50;1.95;;;39.20;37.20;;;;;;5054289;28;20266;-71
2021/06/02 08:39:59;;;;;;;4.72;1.90;;;39.60;35.90;;;;;;5068478;28;20600;-71
2021/06/02 08:42:25;;;;;;;4.43;1.80;;;39.90;36.30;;;;;;5071828;28;20654;-71
2021/06/02 08:44:52;;;;;;;5.35;2.00;;;39.50;36.00;;;;;;5072811;28;20635;-72
2021/06/02 08:47:19;;;;;;;5.03;1.95;;;38.90;35.80;;;;;;5072658;28;20175;-72
2021/06/02 08:49:44;;;;;;;4.63;1.90;;;38.90;36.70;;;;;;5052465;28;20206;-74
2021/06/02 08:52:10;;;;;;;4.05;2.05;;;38.40;36.90;;;;;;5064813;28;20219;-73
2021/06/02 08:54:36;;;;;;;4.22;1.80;;;39.10;39.00;;;;;;5071974;28;20259;-73
2021/06/02 08:57:05;;;;;;;3.25;1.73;;;39.00;35.70;;;;;;5051458;28;20191;-73
2021/06/02 08:59:31;;;;;;;5.65;2.03;;;38.00;36.10;;;;;;5070601;28;20183;-76
2021/06/02 09:01:58;;;;;;;4.15;1.70;;;37.70;36.40;;;;;;5070829;28;20204;-76
2021/06/02 09:04:23;;;;;;;3.53;1.85;;;37.00;36.30;;;;;;5052568;28;20272;-72
2021/06/02 09:06:49;;;;;;;4.15;1.70;;;36.40;36.40;;;;;;5071816;28;20287;-71
2021/06/02 09:09:17;;;;;;;4.95;2.20;;;36.20;37.20;;;;;;5051443;28;20520;-76
2021/06/02 09:11:48;;;;;;;3.55;2.05;;;36.50;37.60;;;;;;5071997;28;20172;-76
2021/06/02 09:14:26;;;;;;;5.40;1.90;;;36.40;37.00;;;;;;5063856;28;20231;-75
2021/06/02 09:16:58;;;;;;;2.85;1.80;;;36.70;37.40;;;;;;5069935;28;20238;-75
2021/06/02 09:19:38;;;;;;;5.05;2.00;;;37.80;38.40;;;;;;5072157;28;20611;-75
2021/06/02 09:22:07;;;;;;;4.35;1.90;;;39.30;37.20;;;;;;5071233;28;20195;-75
2021/06/02 09:24:50;;;;;;;5.85;1.85;;;39.10;35.30;;;;;;5069854;28;20661;-74
2021/06/02 09:27:19;;;;;;;5.30;1.75;;;38.60;36.80;;;;;;5049509;28;20673;-75
2021/06/02 09:29:56;;;;;;;6.35;1.83;;;39.00;37.60;;;;;;5055764;28;20630;-75
2021/06/02 09:32:24;;;;;;;3.53;1.80;;;38.40;37.00;;;;;;5072573;28;20632;-75
2021/06/02 09:34:59;;;;;;;6.40;1.92;;;38.40;37.20;;;;;;5054220;28;20188;-72
2021/06/02 09:37:25;;;;;;;3.75;1.98;;;38.20;37.40;;;;;;5063725;28;20225;-72
2021/06/02 09:39:51;;;;;;;3.55;1.85;;;39.10;38.00;;;;;;5068898;28;20185;-73
2021/06/02 09:42:20;;;;;;;3.70;2.08;;;38.70;37.50;;;;;;5065341;28;20250;-72
2021/06/02 09:45:05;;;;;;;7.22;2.10;;;38.20;38.70;;;;;;5068533;28;20188;-73
2021/06/02 09:47:44;;;;;;;4.20;2.00;;;37.50;38.80;;;;;;5053644;28;20188;-73
2021/06/02 09:50:12;;;;;;;6.10;1.90;;;37.90;39.20;;;;;;5067157;28;20195;-72
2021/06/02 09:52:49;;;;;;;6.10;2.17;;;37.80;38.90;;;;;;5069200;28;20604;-72
2021/06/02 09:55:23;;;;;;;4.53;2.20;;;37.60;39.00;;;;;;5065436;28;20215;-72
2021/06/02 09:58:09;;;;;;;3.25;1.98;;;37.60;40.60;;;;;;5066722;28;20712;-72
2021/06/02 10:00:41;;;;;;;5.40;2.05;;;37.80;40.00;;;;;;5043475;28;20190;-71
2021/06/02 10:03:13;;;;;;;5.57;2.10;;;37.90;38.40;;;;;;5036124;28;20192;-72
2021/06/02 10:05:47;;;;;;;7.32;2.03;;;38.40;39.50;;;;;;5065274;28;20683;-73
2021/06/02 10:08:25;;;;;;;2.75;1.70;;;38.50;38.70;;;;;;5053195;28;20198;-75
2021/06/02 10:10:55;;;;;;;6.38;2.10;;;38.00;38.00;;;;;;5044798;28;20187;-75
2021/06/02 10:13:22;;;;;;;4.65;1.88;;;38.60;38.90;;;;;;5069864;28;20198;-75
2021/06/02 10:15:53;;;;;;;2.72;1.60;;;39.00;39.50;;;;;;5070665;28;20686;-72
2021/06/02 10:18:27;;;;;;;4.10;1.77;;;39.80;37.80;;;;;;5034771;28;20184;-72
2021/06/02 10:21:02;;;;;;;5.30;1.73;;;39.80;37.10;;;;;;5070411;28;20184;-72
2021/06/02 10:23:30;;;;;;;4.20;2.08;;;40.10;38.50;;;;;;5073772;28;20404;-76
2021/06/02 10:25:57;;;;;;;3.05;1.92;;;40.80;36.70;;;;;;5053531;28;20187;-76
2021/06/02 10:28:25;;;;;;;5.20;2.15;;;40.70;37.20;;;;;;5053251;28;20267;-73
2021/06/02 10:30:51;;;;;;;3.58;1.80;;;40.30;37.80;;;;;;5069023;28;20291;-73
2021/06/02 10:33:17;;;;;;;6.90;1.90;;;39.90;37.00;;;;;;5041009;28;20275;-73
2021/06/02 10:35:43;;;;;;;4.25;2.00;;;40.20;37.10;;;;;;5051718;28;20299;-77
2021/06/02 10:38:10;;;;;;;4.88;2.22;;;39.70;37.80;;;;;;5068986;28;20222;-75
2021/06/02 10:40:39;;;;;;;4.88;1.75;;;39.60;35.70;;;;;;5064468;28;20176;-75
2021/06/02 10:43:12;;;;;;;7.50;2.53;;;39.70;36.20;;;;;;5070366;28;20198;-74
2021/06/02 10:46:00;;;;;;;5.70;1.95;;;38.90;35.60;;;;;;5069039;28;20188;-76
2021/06/02 10:48:45;;;;;;;5.57;2.10;;;38.40;37.00;;;;;;5065521;28;20266;-78
2021/06/02 10:51:26;;;;;;;6.20;2.00;;;38.50;36.90;;;;;;5069879;28;20188;-73
2021/06/02 10:54:10;;;;;;;3.70;1.70;;;38.40;37.20;;;;;;5068499;28;20208;-73
2021/06/02 10:56:38;;;;;;;6.18;1.80;;;39.70;36.80;;;;;;5045426;28;20571;-73
2021/06/02 10:59:33;;;;;;;8.05;2.10;;;40.00;35.40;;;;;;5070137;28;20191;-75
2021/06/02 11:02:11;;;;;;;3.88;1.75;;;39.20;37.20;;;;;;5070428;28;20229;-76
2021/06/02 11:04:57;;;;;;;4.55;1.80;;;37.90;36.70;;;;;;5047012;28;20187;-77
2021/06/02 11:07:27;;;;;;;4.45;1.92;;;36.90;37.70;;;;;;5053295;28;20549;-72
2021/06/02 11:09:54;;;;;;;5.45;1.85;;;37.00;37.70;;;;;;5067689;28;20184;-75
2021/06/02 11:12:20;;;;;;;5.10;2.00;;;37.30;38.80;;;;;;5068744;28;20186;-72
2021/06/02 11:14:46;;;;;;;5.63;2.00;;;38.50;39.20;;;;;;5043529;28;20255;-72
2021/06/02 11:17:14;;;;;;;3.60;2.08;;;38.00;37.30;;;;;;5067212;28;20180;-72
2021/06/02 11:19:48;;;;;;;6.15;1.90;;;37.80;38.10;;;;;;5067872;28;20282;-72
2021/06/02 11:22:26;;;;;;;4.00;1.83;;;38.60;38.50;;;;;;5062574;28;20587;-74
2021/06/02 11:24:53;;;;;;;4.13;1.92;;;39.80;38.20;;;;;;5047366;28;20646;-72
2021/06/02 11:27:18;;;;;;;5.32;1.92;;;40.70;37.00;;;;;;5066224;28;20164;-73
2021/06/02 11:29:50;;;;;;;3.03;1.90;;;40.30;37.00;;;;;;5061962;28;20186;-72
2021/06/02 11:32:27;;;;;;;6.60;2.00;;;40.00;37.30;;;;;;5049605;28;20190;-73
2021/06/02 11:34:54;;;;;;;8.90;2.10;;;39.30;36.70;;;;;;5065002;28;20238;-73
2021/06/02 11:37:23;;;;;;;4.80;1.85;;;39.50;38.00;;;;;;5048983;28;20259;-73
2021/06/02 11:39:51;;;;;;;4.97;2.20;;;39.80;38.00;;;;;;5051133;28;20641;-73
2021/06/02 11:42:25;;;;;;;6.93;2.05;;;39.80;38.70;;;;;;5065935;28;20216;-75
2021/06/02 11:45:00;;;;;;;4.85;2.00;;;39.20;37.60;;;;;;5064182;28;20195;-75
2021/06/02 11:47:27;;;;;;;4.75;1.83;;;39.20;37.60;;;;;;5067088;28;20236;-76
2021/06/02 11:50:04;;;;;;;3.15;1.88;;;39.30;37.70;;;;;;5069988;28;20208;-77
2021/06/02 11:52:30;;;;;;;4.72;1.90;;;39.60;38.20;;;;;;5045596;28;20635;-76
2021/06/02 11:55:00;;;;;;;5.10;1.98;;;39.20;38.60;;;;;;5068846;28;20217;-77
2021/06/02 11:57:27;;;;;;;3.20;1.70;;;38.80;38.30;;;;;;5060952;28;20198;-75
2021/06/02 11:59:54;;;;;;;4.13;2.00;;;38.40;38.80;;;;;;5067576;28;20271;-76
2021/06/02 12:02:20;;;;;;;4.97;2.03;;;38.20;39.10;;;;;;5065684;28;20184;-76
2021/06/02 12:04:46;;;;;;;3.00;1.90;;;37.90;40.50;;;;;;5067411;28;20259;-75
2021/06/02 12:07:28;;;;;;;5.45;2.15;;;37.10;41.00;;;;;;5051348;28;20172;-75
2021/06/02 12:09:56;;;;;;;4.93;2.20;;;36.60;42.80;;;;;;5042476;28;20191;-76
2021/06/02 12:12:23;;;;;;;6.90;2.45;;;35.90;43.40;;;;;;5049779;28;20191;-76
2021/06/02 12:14:58;;;;;;;4.88;2.10;;;35.10;42.70;;;;;;5066524;28;20350;-76
2021/06/02 12:17:31;;;;;;;4.72;1.92;;;34.40;43.00;;;;;;5066390;28;20195;-76
2021/06/02 12:19:59;;;;;;;3.90;2.03;;;34.10;43.70;;;;;;5068613;28;20546;-76
2021/06/02 12:22:25;;;;;;;5.03;2.10;;;33.60;44.70;;;;;;5068627;28;20191;-77
2021/06/02 12:25:18;;;;;;;5.18;2.20;;;33.10;45.00;;;;;;5066552;28;20184;-73
2021/06/02 12:27:52;;;;;;;4.07;1.98;;;32.70;46.60;;;;;;5066916;22;20267;-76
2021/06/02 12:30:19;;;;;;;5.28;2.15;;;32.30;46.50;;;;;;5049047;28;20187;-73
2021/06/02 12:32:48;;;;;;;6.95;2.30;;;32.30;47.20;;;;;;5050828;28;20198;-72
2021/06/02 12:35:26;;;;;;;4.82;2.30;;;32.10;47.80;;;;;;5062007;28;20279;-73
2021/06/02 12:38:21;;;;;;;4.65;2.55;;;32.30;47.80;;;;;;5063623;28;20281;-74
2021/06/02 12:41:01;;;;;;;7.00;2.30;;;32.10;47.90;;;;;;5064561;28;20178;-73
2021/06/02 12:43:40;;;;;;;3.70;2.30;;;31.90;48.50;;;;;;5058856;28;20216;-76
2021/06/02 12:46:14;;;;;;;6.07;2.22;;;32.00;48.10;;;;;;5062128;28;20269;-76
2021/06/02 12:48:41;;;;;;;7.38;2.42;;;31.90;48.40;;;;;;5068739;28;20336;-72
2021/06/02 12:51:23;;;;;;;4.80;2.10;;;31.70;48.90;;;;;;5062609;28;20183;-73
2021/06/02 12:53:48;;;;;;;6.13;2.30;;;31.50;49.90;;;;;;5060716;28;20203;-73
2021/06/02 12:56:16;;;;;;;4.35;2.20;;;31.40;49.80;;;;;;5066004;28;20211;-75
2021/06/02 12:58:43;;;;;;;4.60;2.35;;;31.30;51.80;;;;;;5068255;28;20191;-75
2021/06/02 13:01:12;;;;;;;6.88;2.25;;;31.30;50.70;;;;;;5062651;28;20196;-76
2021/06/02 13:03:49;;;;;;;5.65;2.30;;;31.50;50.30;;;;;;5031407;28;20187;-73
2021/06/02 13:06:24;;;;;;;5.88;2.33;;;31.50;50.00;;;;;;5061682;28;20187;-73
2021/06/02 13:08:51;;;;;;;5.60;2.28;;;31.70;51.60;;;;;;5067082;28;20184;-73
2021/06/02 13:11:26;;;;;;;6.72;2.25;;;31.50;50.30;;;;;;5065173;28;20179;-73
2021/06/02 13:13:52;;;;;;;4.97;2.15;;;31.60;50.40;;;;;;5065068;28;20665;-73
2021/06/02 13:16:20;;;;;;;5.57;2.47;;;31.50;50.60;;;;;;5070472;28;20268;-75
2021/06/02 13:19:01;;;;;;;5.63;2.25;;;31.50;51.00;;;;;;5070591;28;20187;-76
2021/06/02 13:21:30;;;;;;;5.38;2.22;;;31.60;53.50;;;;;;5066480;28;20194;-75
2021/06/02 13:24:14;;;;;;;7.93;2.30;;;31.80;50.50;;;;;;5070537;28;20561;-73
2021/06/02 13:26:43;;;;;;;5.43;2.30;;;31.90;50.70;;;;;;5067381;28;20203;-73
2021/06/02 13:29:10;;;;;;;6.88;2.70;;;32.00;52.20;;;;;;5068386;28;20227;-73